createdAt,value
2023-01-25T00:00:50.309Z,2.66
2023-01-25T00:03:17.543Z,2.41
2023-01-25T00:05:44.504Z,2.65
2023-01-25T00:08:11.616Z,2.65
2023-01-25T00:10:38.696Z,2.59
2023-01-25T00:13:05.873Z,2.71
2023-01-25T00:15:32.720Z,2.58
2023-01-25T00:17:59.948Z,2.75
2023-01-25T00:20:27.049Z,2.78
2023-01-25T00:22:53.981Z,2.72
2023-01-25T00:25:20.896Z,2.64
2023-01-25T00:27:47.995Z,2.56
2023-01-25T00:30:17.211Z,2.60
2023-01-25T00:33:08.793Z,2.63
2023-01-25T00:35:35.863Z,2.54
2023-01-25T00:38:18.410Z,2.57
2023-01-25T00:40:45.435Z,2.63
2023-01-25T00:43:14.499Z,2.58
2023-01-25T00:45:41.623Z,2.31
2023-01-25T00:48:09.389Z,2.55
2023-01-25T00:50:39.622Z,2.61
2023-01-25T00:53:07.640Z,2.70
2023-01-25T00:55:34.564Z,2.56
2023-01-25T00:58:01.579Z,2.61
2023-01-25T01:00:28.645Z,2.67
2023-01-25T01:02:57.325Z,2.67
2023-01-25T01:05:24.373Z,2.49
2023-01-25T01:07:51.494Z,2.55
2023-01-25T01:10:19.291Z,2.29
2023-01-25T01:12:46.149Z,2.45
2023-01-25T01:15:13.060Z,2.48
2023-01-25T01:17:40.174Z,2.40
2023-01-25T01:20:07.454Z,2.54
2023-01-25T01:22:34.561Z,2.50
2023-01-25T01:25:01.651Z,2.57
2023-01-25T01:27:30.315Z,2.47
2023-01-25T01:29:57.648Z,2.60
2023-01-25T01:32:24.787Z,2.60
2023-01-25T01:34:52.119Z,2.56
2023-01-25T01:37:19.091Z,2.52
2023-01-25T01:39:46.032Z,2.53
2023-01-25T01:42:12.985Z,2.58
2023-01-25T01:44:51.498Z,2.60
2023-01-25T01:47:41.431Z,2.41
2023-01-25T01:50:21.207Z,2.40
2023-01-25T01:52:50.554Z,2.39
2023-01-25T01:55:22.670Z,2.26
2023-01-25T01:57:58.198Z,2.38
2023-01-25T02:00:29.857Z,2.37
2023-01-25T02:02:58.511Z,2.40
2023-01-25T02:06:03.879Z,2.44
2023-01-25T02:08:35.902Z,2.31
2023-01-25T02:11:05.174Z,2.37
2023-01-25T02:13:32.380Z,2.36
2023-01-25T02:16:00.844Z,2.33
2023-01-25T02:18:29.492Z,2.29
2023-01-25T02:20:59.874Z,2.26
2023-01-25T02:23:40.750Z,2.21
2023-01-25T02:26:10.229Z,2.36
2023-01-25T02:28:49.789Z,2.38
2023-01-25T02:31:17.868Z,2.12
2023-01-25T02:33:45.147Z,2.33
2023-01-25T02:36:12.023Z,2.43
2023-01-25T02:38:43.124Z,2.40
2023-01-25T02:41:21.589Z,2.42
2023-01-25T02:43:48.612Z,2.45
2023-01-25T02:46:22.671Z,2.48
2023-01-25T02:48:49.714Z,2.39
2023-01-25T02:51:16.640Z,2.45
2023-01-25T02:53:43.768Z,2.44
2023-01-25T02:56:10.879Z,2.23
2023-01-25T02:58:38.245Z,2.30
2023-01-25T03:01:05.220Z,2.30
2023-01-25T03:03:32.309Z,2.35
2023-01-25T03:05:59.213Z,2.46
2023-01-25T03:08:27.841Z,2.53
2023-01-25T03:10:59.724Z,2.52
2023-01-25T03:13:29.702Z,2.59
2023-01-25T03:16:02.856Z,2.65
2023-01-25T03:18:30.329Z,2.70
2023-01-25T03:21:04.659Z,2.68
2023-01-25T03:23:31.829Z,2.67
2023-01-25T03:26:13.162Z,2.68
2023-01-25T03:28:55.355Z,2.49
2023-01-25T03:31:23.199Z,2.61
2023-01-25T03:33:50.980Z,2.64
2023-01-25T03:36:19.798Z,2.67
2023-01-25T03:38:47.326Z,2.61
2023-01-25T03:41:15.158Z,2.38
2023-01-25T03:43:44.204Z,2.70
2023-01-25T03:46:11.216Z,2.73
2023-01-25T03:48:39.054Z,2.70
2023-01-25T03:51:06.401Z,2.60
2023-01-25T03:53:33.949Z,2.59
2023-01-25T03:56:17.757Z,2.74
2023-01-25T03:58:51.647Z,2.73
2023-01-25T04:01:19.416Z,2.65
2023-01-25T04:03:46.437Z,2.54
2023-01-25T04:06:13.578Z,2.50
2023-01-25T04:08:40.599Z,2.62
2023-01-25T04:11:10.499Z,2.21
2023-01-25T04:13:38.836Z,2.61
2023-01-25T04:16:12.307Z,2.71
2023-01-25T04:18:59.617Z,2.56
2023-01-25T04:21:28.366Z,2.66
2023-01-25T04:23:56.328Z,2.61
2023-01-25T04:26:23.643Z,2.63
2023-01-25T04:28:58.391Z,2.68
2023-01-25T04:31:25.530Z,2.68
2023-01-25T04:33:53.088Z,2.54
2023-01-25T04:36:20.815Z,2.65
2023-01-25T04:38:48.327Z,2.77
2023-01-25T04:41:15.503Z,2.73
2023-01-25T04:43:44.245Z,2.73
2023-01-25T04:46:11.550Z,2.71
2023-01-25T04:48:39.415Z,2.80
2023-01-25T04:51:09.496Z,2.78
2023-01-25T04:53:37.087Z,2.47
2023-01-25T04:56:07.288Z,2.71
2023-01-25T04:58:43.218Z,2.56
2023-01-25T05:01:11.563Z,2.68
2023-01-25T05:03:38.919Z,2.73
2023-01-25T05:06:12.874Z,2.73
2023-01-25T05:08:40.056Z,2.69
2023-01-25T05:11:07.236Z,2.56
2023-01-25T05:13:48.594Z,2.62
2023-01-25T05:16:22.400Z,2.60
2023-01-25T05:18:49.728Z,2.49
2023-01-25T05:21:39.839Z,2.41
2023-01-25T05:24:08.679Z,2.53
2023-01-25T05:26:54.304Z,2.19
2023-01-25T05:29:22.052Z,2.48
2023-01-25T05:31:55.237Z,2.42
2023-01-25T05:34:22.403Z,2.19
2023-01-25T05:36:50.464Z,2.36
2023-01-25T05:39:18.135Z,2.40
2023-01-25T05:41:47.637Z,2.36
2023-01-25T05:44:15.433Z,2.30
2023-01-25T05:46:46.544Z,2.36
2023-01-25T05:49:15.070Z,2.36
2023-01-25T05:51:42.482Z,2.32
2023-01-25T05:54:15.259Z,2.31
2023-01-25T05:56:49.536Z,2.23
2023-01-25T05:59:17.478Z,2.24
2023-01-25T06:01:44.806Z,2.19
2023-01-25T06:04:15.980Z,2.16
2023-01-25T06:06:43.838Z,2.19
2023-01-25T06:09:12.418Z,2.19
2023-01-25T06:11:42.903Z,2.23
2023-01-25T06:14:10.201Z,2.19
2023-01-25T06:16:38.270Z,2.24
2023-01-25T06:19:23.746Z,2.17
2023-01-25T06:22:10.305Z,2.24
2023-01-25T06:24:37.436Z,2.20
2023-01-25T06:27:04.468Z,2.25
2023-01-25T06:29:31.516Z,2.18
2023-01-25T06:31:59.041Z,2.26
2023-01-25T06:34:26.318Z,2.33
2023-01-25T06:36:54.368Z,2.32
2023-01-25T06:39:21.490Z,2.10
2023-01-25T06:41:48.586Z,2.19
2023-01-25T06:44:18.169Z,2.13
2023-01-25T06:46:45.117Z,2.17
2023-01-25T06:49:12.647Z,2.28
2023-01-25T06:51:39.839Z,2.46
2023-01-25T06:54:06.875Z,2.46
2023-01-25T06:56:33.873Z,2.56
2023-01-25T06:59:00.967Z,2.53
2023-01-25T07:01:30.428Z,2.57
2023-01-25T07:03:59.145Z,2.60
2023-01-25T07:06:32.109Z,2.59
2023-01-25T07:09:06.911Z,2.54
2023-01-25T07:11:34.394Z,2.49
2023-01-25T07:14:01.449Z,2.37
2023-01-25T07:16:28.513Z,2.47
2023-01-25T07:18:55.755Z,2.40
2023-01-25T07:21:23.940Z,2.64
2023-01-25T07:23:51.580Z,2.61
2023-01-25T07:26:24.705Z,2.46
2023-01-25T07:28:52.843Z,2.50
2023-01-25T07:31:20.988Z,2.47
2023-01-25T07:33:49.716Z,2.01
2023-01-25T07:36:17.165Z,2.41
2023-01-25T07:38:44.399Z,2.24
2023-01-25T07:41:12.255Z,2.21
2023-01-25T07:43:39.550Z,2.54
2023-01-25T07:46:12.618Z,2.39
2023-01-25T07:48:45.195Z,2.60
2023-01-25T07:51:12.702Z,2.47
2023-01-25T07:53:44.493Z,2.46
2023-01-25T07:56:12.759Z,2.53
2023-01-25T07:58:40.234Z,2.33
2023-01-25T08:01:12.984Z,2.56
2023-01-25T08:03:40.191Z,2.50
2023-01-25T08:06:08.275Z,2.62
2023-01-25T08:08:55.575Z,2.30
2023-01-25T08:11:26.437Z,2.67
2023-01-25T08:13:54.199Z,2.59
2023-01-25T08:16:24.389Z,1.73
2023-01-25T08:18:54.339Z,2.32
2023-01-25T08:21:24.436Z,2.50
2023-01-25T08:23:52.026Z,2.63
2023-01-25T08:26:19.132Z,2.71
2023-01-25T08:28:46.131Z,2.71
2023-01-25T08:31:19.211Z,2.75
2023-01-25T08:33:47.000Z,2.76
2023-01-25T08:36:15.553Z,2.93
2023-01-25T08:38:45.781Z,2.98
2023-01-25T08:41:18.250Z,2.97
2023-01-25T08:43:46.814Z,2.86
2023-01-25T08:46:15.749Z,3.02
2023-01-25T08:48:42.623Z,2.90
2023-01-25T08:51:12.795Z,3.06
2023-01-25T08:53:39.726Z,2.83
2023-01-25T08:56:10.408Z,2.81
2023-01-25T08:58:38.173Z,2.88
2023-01-25T09:01:07.605Z,2.73
2023-01-25T09:03:39.179Z,2.66
2023-01-25T09:06:06.767Z,2.71
2023-01-25T09:08:34.417Z,2.70
2023-01-25T09:11:07.480Z,2.77
2023-01-25T09:13:34.627Z,2.80
2023-01-25T09:16:03.126Z,2.94
2023-01-25T09:18:31.234Z,3.05
2023-01-25T09:20:59.091Z,3.11
2023-01-25T09:23:26.991Z,3.18
2023-01-25T09:25:58.720Z,3.13
2023-01-25T09:28:27.191Z,3.15
2023-01-25T09:31:18.791Z,2.96
2023-01-25T09:34:15.258Z,3.08
2023-01-25T09:36:42.907Z,3.10
2023-01-25T09:39:14.467Z,3.14
2023-01-25T09:41:44.502Z,3.12
2023-01-25T09:44:53.020Z,2.56
2023-01-25T09:47:42.935Z,3.16
2023-01-25T09:50:28.634Z,3.17
2023-01-25T09:53:15.995Z,3.19
2023-01-25T09:55:43.201Z,3.10
2023-01-25T09:58:20.814Z,3.36
2023-01-25T10:00:52.811Z,3.39
2023-01-25T10:03:34.274Z,3.45
2023-01-25T10:06:03.006Z,3.48
2023-01-25T10:08:43.048Z,3.27
2023-01-25T10:11:30.477Z,3.57
2023-01-25T10:13:59.145Z,3.52
2023-01-25T10:16:33.260Z,3.47
2023-01-25T10:19:10.580Z,3.61
2023-01-25T10:21:47.369Z,3.61
2023-01-25T10:24:26.662Z,3.65
2023-01-25T10:26:58.203Z,3.65
2023-01-25T10:29:33.263Z,3.68
2023-01-25T10:32:19.852Z,3.81
2023-01-25T10:34:57.166Z,3.72
2023-01-25T10:37:32.251Z,3.82
2023-01-25T10:39:59.943Z,3.88
2023-01-25T10:42:30.409Z,3.92
2023-01-25T10:44:57.377Z,3.75
2023-01-25T10:47:27.617Z,3.97
2023-01-25T10:49:56.986Z,3.92
2023-01-25T10:52:30.273Z,4.10
2023-01-25T10:55:16.054Z,4.16
2023-01-25T10:58:00.939Z,4.17
2023-01-25T11:00:51.897Z,4.32
2023-01-25T11:03:22.491Z,4.31
2023-01-25T11:05:57.520Z,4.43
2023-01-25T11:08:30.770Z,4.53
2023-01-25T11:11:02.465Z,4.21
2023-01-25T11:13:33.421Z,4.23
2023-01-25T11:16:01.931Z,4.47
2023-01-25T11:18:35.140Z,4.52
2023-01-25T11:21:19.577Z,4.05
2023-01-25T11:24:02.030Z,4.60
2023-01-25T11:26:31.938Z,4.21
2023-01-25T11:29:15.531Z,4.45
2023-01-25T11:31:46.646Z,4.52
2023-01-25T11:34:16.717Z,4.41
2023-01-25T11:37:07.736Z,4.23
2023-01-25T11:39:50.332Z,4.51
2023-01-25T11:42:28.540Z,4.53
2023-01-25T11:45:20.081Z,4.54
2023-01-25T11:48:06.542Z,4.55
2023-01-25T11:50:47.546Z,4.15
2023-01-25T11:53:34.140Z,4.76
2023-01-25T11:56:09.729Z,4.78
2023-01-25T11:58:58.345Z,4.64
2023-01-25T12:01:51.657Z,4.61
2023-01-25T12:04:37.603Z,4.57
2023-01-25T12:07:34.749Z,4.43
2023-01-25T12:10:22.800Z,4.56
2023-01-25T12:13:48.454Z,4.44
2023-01-25T12:16:30.528Z,4.28
2023-01-25T12:19:13.997Z,4.29
2023-01-25T12:22:21.984Z,4.27
2023-01-25T12:24:54.862Z,4.29
2023-01-25T12:27:31.218Z,4.33
2023-01-25T12:30:21.779Z,4.20
2023-01-25T12:33:08.890Z,4.25
2023-01-25T12:35:47.038Z,4.37
2023-01-25T12:38:27.676Z,4.19
2023-01-25T12:41:18.998Z,4.11
2023-01-25T12:43:52.525Z,4.16
2023-01-25T12:46:34.784Z,4.14
2023-01-25T12:49:11.974Z,4.21
2023-01-25T12:51:41.716Z,4.31
2023-01-25T12:54:30.368Z,4.21
2023-01-25T12:57:16.660Z,4.17
2023-01-25T12:59:50.539Z,4.08
2023-01-25T13:02:39.495Z,4.05
2023-01-25T13:05:22.241Z,4.09
2023-01-25T13:07:55.757Z,4.07
2023-01-25T13:10:45.996Z,4.02
2023-01-25T13:13:29.269Z,4.18
2023-01-25T13:15:57.776Z,3.99
2023-01-25T13:18:24.698Z,4.12
2023-01-25T13:21:00.838Z,4.14
2023-01-25T13:23:50.855Z,4.15
2023-01-25T13:26:21.323Z,4.15
2023-01-25T13:28:53.391Z,3.95
2023-01-25T13:31:51.102Z,4.20
2023-01-25T13:34:42.388Z,4.22
2023-01-25T13:37:21.806Z,4.15
2023-01-25T13:40:08.485Z,4.09
2023-01-25T13:42:38.663Z,3.87
2023-01-25T13:45:18.673Z,4.11
2023-01-25T13:48:01.595Z,4.15
2023-01-25T13:50:40.157Z,4.16
2023-01-25T13:53:21.370Z,4.18
2023-01-25T13:55:54.974Z,3.82
2023-01-25T13:58:31.167Z,4.26
2023-01-25T14:01:02.713Z,4.20
2023-01-25T14:03:51.739Z,4.09
2023-01-25T14:06:20.661Z,3.78
2023-01-25T14:08:50.084Z,3.94
2023-01-25T14:11:26.587Z,3.49
2023-01-25T14:14:20.589Z,3.89
2023-01-25T14:17:01.192Z,3.84
2023-01-25T14:19:30.112Z,3.51
2023-01-25T14:22:15.715Z,3.82
2023-01-25T14:24:42.870Z,3.62
2023-01-25T14:27:17.255Z,3.51
2023-01-25T14:29:48.869Z,3.45
2023-01-25T14:32:20.897Z,3.22
2023-01-25T14:34:48.207Z,3.64
2023-01-25T14:37:20.998Z,3.60
2023-01-25T14:39:51.120Z,3.63
2023-01-25T14:42:19.067Z,3.42
2023-01-25T14:44:46.517Z,3.46
2023-01-25T14:47:31.239Z,3.42
2023-01-25T14:50:34.285Z,3.42
2023-01-25T14:53:16.883Z,3.24
2023-01-25T14:55:46.349Z,3.14
2023-01-25T14:58:16.700Z,3.27
2023-01-25T15:00:52.690Z,3.02
2023-01-25T15:03:22.500Z,2.96
2023-01-25T15:05:49.815Z,2.91
2023-01-25T15:08:39.521Z,3.11
2023-01-25T15:11:45.323Z,2.91
2023-01-25T15:14:18.907Z,2.85
2023-01-25T15:16:46.413Z,2.96
2023-01-25T15:19:31.086Z,2.95
2023-01-25T15:22:00.533Z,2.53
2023-01-25T15:24:28.399Z,2.83
2023-01-25T15:26:56.426Z,2.81
2023-01-25T15:29:27.198Z,2.67
2023-01-25T15:31:56.671Z,2.45
2023-01-25T15:34:32.602Z,2.54
2023-01-25T15:36:59.685Z,2.62
2023-01-25T15:39:27.334Z,2.46
2023-01-25T15:41:54.457Z,2.56
2023-01-25T15:44:22.070Z,2.46
2023-01-25T15:46:52.322Z,2.25
2023-01-25T15:49:28.219Z,2.59
2023-01-25T15:51:56.220Z,2.43
2023-01-25T15:54:24.589Z,2.47
2023-01-25T15:56:56.607Z,2.39
2023-01-25T15:59:24.105Z,2.47
2023-01-25T16:01:51.341Z,2.23
2023-01-25T16:04:18.428Z,2.25
2023-01-25T16:06:45.702Z,2.23
2023-01-25T16:09:17.030Z,2.24
2023-01-25T16:11:45.635Z,2.21
2023-01-25T16:14:12.779Z,2.17
2023-01-25T16:16:46.132Z,2.20
2023-01-25T16:19:15.815Z,2.25
2023-01-25T16:21:43.807Z,2.29
2023-01-25T16:24:11.921Z,2.28
2023-01-25T16:26:51.007Z,2.19
2023-01-25T16:29:18.242Z,2.22
2023-01-25T16:31:45.588Z,2.19
2023-01-25T16:34:12.843Z,2.01
2023-01-25T16:36:40.163Z,2.20
2023-01-25T16:39:34.206Z,2.24
2023-01-25T16:42:02.716Z,1.91
2023-01-25T16:44:30.167Z,1.95
2023-01-25T16:46:57.660Z,2.22
2023-01-25T16:49:27.451Z,2.12
2023-01-25T16:51:55.825Z,2.20
2023-01-25T16:54:24.476Z,1.92
2023-01-25T16:56:53.477Z,2.24
2023-01-25T16:59:22.365Z,2.19
2023-01-25T17:01:51.727Z,2.09
2023-01-25T17:04:18.895Z,2.09
2023-01-25T17:06:49.574Z,1.95
2023-01-25T17:09:24.110Z,2.02
2023-01-25T17:11:55.443Z,2.00
2023-01-25T17:14:23.321Z,2.08
2023-01-25T17:16:53.846Z,2.00
2023-01-25T17:19:21.517Z,1.94
2023-01-25T17:21:48.595Z,1.83
2023-01-25T17:24:19.403Z,1.95
2023-01-25T17:26:46.884Z,1.81
2023-01-25T17:29:14.399Z,1.95
2023-01-25T17:31:42.583Z,1.93
2023-01-25T17:34:16.366Z,1.68
2023-01-25T17:36:45.385Z,1.74
2023-01-25T17:39:15.553Z,1.58
2023-01-25T17:41:43.853Z,1.77
2023-01-25T17:44:11.544Z,1.66
2023-01-25T17:46:38.808Z,1.78
2023-01-25T17:49:08.520Z,1.41
2023-01-25T17:51:36.585Z,1.75
2023-01-25T17:54:05.418Z,1.69
2023-01-25T17:56:34.038Z,1.69
2023-01-25T17:59:02.466Z,1.73
2023-01-25T18:01:32.329Z,1.54
2023-01-25T18:04:00.781Z,1.47
2023-01-25T18:06:29.903Z,1.55
2023-01-25T18:09:03.031Z,1.62
2023-01-25T18:11:32.908Z,1.64
2023-01-25T18:14:03.698Z,1.57
2023-01-25T18:16:32.352Z,1.55
2023-01-25T18:19:01.408Z,1.71
2023-01-25T18:21:31.851Z,1.75
2023-01-25T18:24:02.441Z,1.46
2023-01-25T18:26:33.509Z,1.75
2023-01-25T18:29:40.672Z,1.78
2023-01-25T18:32:08.021Z,1.73
2023-01-25T18:34:39.016Z,1.74
2023-01-25T18:37:18.933Z,1.70
2023-01-25T18:39:52.013Z,1.75
2023-01-25T18:42:20.617Z,1.81
2023-01-25T18:44:50.464Z,1.84
2023-01-25T18:47:20.042Z,1.88
2023-01-25T18:49:48.058Z,1.91
2023-01-25T18:52:19.528Z,1.89
2023-01-25T18:54:46.950Z,1.77
2023-01-25T18:57:15.046Z,1.84
2023-01-25T18:59:42.721Z,1.74
2023-01-25T19:02:12.654Z,1.85
2023-01-25T19:04:40.456Z,1.84
2023-01-25T19:07:07.706Z,1.87
2023-01-25T19:09:34.992Z,1.76
2023-01-25T19:12:02.074Z,1.64
2023-01-25T19:14:29.101Z,1.78
2023-01-25T19:16:56.796Z,1.74
2023-01-25T19:19:24.143Z,1.54
2023-01-25T19:21:51.705Z,1.58
2023-01-25T19:24:21.085Z,1.73
2023-01-25T19:26:48.245Z,1.70
2023-01-25T19:29:15.871Z,1.73
2023-01-25T19:31:43.329Z,1.74
2023-01-25T19:34:10.722Z,1.53
2023-01-25T19:36:43.799Z,1.63
2023-01-25T19:39:11.766Z,1.58
2023-01-25T19:41:39.102Z,1.45
2023-01-25T19:44:07.864Z,1.35
2023-01-25T19:46:36.221Z,1.68
2023-01-25T19:49:06.056Z,1.60
2023-01-25T19:51:35.545Z,1.68
2023-01-25T19:54:05.260Z,1.69
2023-01-25T19:56:41.068Z,1.49
2023-01-25T19:59:14.083Z,1.60
2023-01-25T20:01:45.243Z,1.48
2023-01-25T20:04:15.537Z,1.64
2023-01-25T20:06:46.303Z,1.61
2023-01-25T20:09:18.690Z,1.54
2023-01-25T20:11:47.339Z,1.55
2023-01-25T20:14:15.117Z,1.28
2023-01-25T20:16:42.152Z,1.46
2023-01-25T20:19:12.052Z,1.62
2023-01-25T20:21:39.973Z,1.56
2023-01-25T20:24:09.923Z,1.58
2023-01-25T20:26:39.808Z,1.56
2023-01-25T20:29:07.911Z,1.46
2023-01-25T20:31:41.170Z,1.42
2023-01-25T20:34:12.698Z,1.50
2023-01-25T20:36:41.560Z,1.55
2023-01-25T20:39:11.089Z,1.51
2023-01-25T20:41:38.143Z,1.55
2023-01-25T20:44:08.677Z,1.48
2023-01-25T20:46:38.752Z,1.54
2023-01-25T20:49:10.540Z,1.56
2023-01-25T20:51:37.754Z,1.49
2023-01-25T20:54:04.880Z,1.51
2023-01-25T20:56:32.787Z,1.33
2023-01-25T20:58:59.817Z,1.40
2023-01-25T21:01:33.387Z,1.43
2023-01-25T21:04:00.457Z,1.45
2023-01-25T21:06:28.631Z,1.26
2023-01-25T21:08:55.936Z,1.29
2023-01-25T21:11:26.308Z,1.09
2023-01-25T21:13:57.475Z,1.41
2023-01-25T21:16:24.613Z,1.36
2023-01-25T21:18:54.541Z,1.39
2023-01-25T21:21:34.668Z,1.37
2023-01-25T21:24:02.952Z,1.27
2023-01-25T21:26:33.024Z,1.39
2023-01-25T21:29:01.465Z,1.43
2023-01-25T21:31:32.799Z,1.40
2023-01-25T21:34:01.290Z,1.26
2023-01-25T21:36:28.756Z,1.38
2023-01-25T21:38:56.092Z,1.45
2023-01-25T21:41:25.836Z,1.31
2023-01-25T21:44:12.791Z,1.31
2023-01-25T21:46:40.474Z,1.45
2023-01-25T21:49:28.211Z,1.39
2023-01-25T21:52:02.124Z,1.29
2023-01-25T21:54:32.176Z,1.43
2023-01-25T21:57:00.668Z,1.27
2023-01-25T21:59:27.921Z,1.33
2023-01-25T22:01:55.800Z,1.48
2023-01-25T22:04:24.756Z,1.26
2023-01-25T22:06:54.926Z,1.22
2023-01-25T22:09:23.169Z,1.29
2023-01-25T22:11:51.035Z,1.22
2023-01-25T22:14:24.883Z,1.21
2023-01-25T22:16:54.307Z,1.20
2023-01-25T22:19:21.355Z,1.17
2023-01-25T22:21:48.531Z,1.12
2023-01-25T22:24:16.298Z,1.13
2023-01-25T22:26:50.794Z,1.10
2023-01-25T22:29:17.809Z,0.96
2023-01-25T22:31:44.822Z,1.13
2023-01-25T22:34:12.079Z,1.06
2023-01-25T22:36:39.067Z,1.13
2023-01-25T22:39:06.631Z,0.90
2023-01-25T22:41:36.904Z,1.12
2023-01-25T22:44:04.580Z,1.11
2023-01-25T22:46:31.751Z,0.86
2023-01-25T22:48:59.247Z,0.99
2023-01-25T22:51:29.292Z,1.03
2023-01-25T22:53:57.598Z,1.05
2023-01-25T22:56:31.819Z,1.01
2023-01-25T22:58:59.860Z,0.99
2023-01-25T23:01:29.814Z,1.02
2023-01-25T23:03:57.283Z,0.89
2023-01-25T23:06:27.374Z,0.88
2023-01-25T23:08:59.920Z,0.87
2023-01-25T23:11:35.450Z,0.85
2023-01-25T23:14:26.038Z,0.78
2023-01-25T23:16:53.497Z,0.85
2023-01-25T23:19:20.480Z,0.86
2023-01-25T23:21:47.507Z,0.90
2023-01-25T23:24:14.538Z,0.90
2023-01-25T23:26:46.591Z,0.88
2023-01-25T23:29:14.491Z,0.87
2023-01-25T23:31:41.975Z,0.77
2023-01-25T23:34:11.709Z,0.82
2023-01-25T23:36:39.673Z,0.76
2023-01-25T23:39:06.695Z,0.49
2023-01-25T23:41:34.024Z,0.82
2023-01-25T23:44:02.029Z,0.88
